sensor_id;sensor_type;location;lat;lon;timestamp;P1;durP1;ratioP1;P2;durP2;ratioP2
64915;SDS011;51427;-27.442;153.014;2023-08-21T00:00:17;7.38;;;4.60;;
64915;SDS011;51427;-27.442;153.014;2023-08-21T00:02:44;7.28;;;5.13;;
64915;SDS011;51427;-27.442;153.014;2023-08-21T00:05:11;7.38;;;4.40;;
64915;SDS011;51427;-27.442;153.014;2023-08-21T00:07:39;8.52;;;4.97;;
64915;SDS011;51427;-27.442;153.014;2023-08-21T00:10:06;6.57;;;4.10;;
64915;SDS011;51427;-27.442;153.014;2023-08-21T00:12:35;7.38;;;5.00;;
64915;SDS011;51427;-27.442;153.014;2023-08-21T00:15:02;7.00;;;4.55;;
64915;SDS011;51427;-27.442;153.014;2023-08-21T00:17:30;9.38;;;5.05;;
64915;SDS011;51427;-27.442;153.014;2023-08-21T00:19:58;7.80;;;4.25;;
64915;SDS011;51427;-27.442;153.014;2023-08-21T00:22:25;6.82;;;4.45;;
64915;SDS011;51427;-27.442;153.014;2023-08-21T00:24:52;8.23;;;4.38;;
64915;SDS011;51427;-27.442;153.014;2023-08-21T00:27:20;6.63;;;4.55;;
64915;SDS011;51427;-27.442;153.014;2023-08-21T00:29:47;8.07;;;4.80;;
64915;SDS011;51427;-27.442;153.014;2023-08-21T00:32:14;7.80;;;4.25;;
64915;SDS011;51427;-27.442;153.014;2023-08-21T00:34:41;10.75;;;4.18;;
64915;SDS011;51427;-27.442;153.014;2023-08-21T00:37:09;6.57;;;3.85;;
64915;SDS011;51427;-27.442;153.014;2023-08-21T00:39:36;6.50;;;3.53;;
64915;SDS011;51427;-27.442;153.014;2023-08-21T00:42:04;9.02;;;3.55;;
64915;SDS011;51427;-27.442;153.014;2023-08-21T00:44:32;5.07;;;3.88;;
64915;SDS011;51427;-27.442;153.014;2023-08-21T00:47:00;4.60;;;3.72;;
64915;SDS011;51427;-27.442;153.014;2023-08-21T00:49:27;6.47;;;3.92;;
64915;SDS011;51427;-27.442;153.014;2023-08-21T00:51:55;6.43;;;3.63;;
64915;SDS011;51427;-27.442;153.014;2023-08-21T00:54:22;4.10;;;3.40;;
64915;SDS011;51427;-27.442;153.014;2023-08-21T00:56:50;4.45;;;3.58;;
64915;SDS011;51427;-27.442;153.014;2023-08-21T00:59:18;5.07;;;3.25;;
64915;SDS011;51427;-27.442;153.014;2023-08-21T01:01:46;7.00;;;3.78;;
64915;SDS011;51427;-27.442;153.014;2023-08-21T01:04:13;5.82;;;4.07;;
64915;SDS011;51427;-27.442;153.014;2023-08-21T01:06:41;5.63;;;3.45;;
64915;SDS011;51427;-27.442;153.014;2023-08-21T01:15:03;4.37;;;3.30;;
64915;SDS011;51427;-27.442;153.014;2023-08-21T01:17:39;6.70;;;3.72;;
64915;SDS011;51427;-27.442;153.014;2023-08-21T01:20:07;7.07;;;3.60;;
64915;SDS011;51427;-27.442;153.014;2023-08-21T01:22:38;4.13;;;3.35;;
64915;SDS011;51427;-27.442;153.014;2023-08-21T01:25:07;3.63;;;3.33;;
64915;SDS011;51427;-27.442;153.014;2023-08-21T01:27:35;5.25;;;3.20;;
64915;SDS011;51427;-27.442;153.014;2023-08-21T01:30:03;5.38;;;3.15;;
64915;SDS011;51427;-27.442;153.014;2023-08-21T01:35:03;6.15;;;3.00;;
64915;SDS011;51427;-27.442;153.014;2023-08-21T01:37:32;5.63;;;3.40;;
64915;SDS011;51427;-27.442;153.014;2023-08-21T01:40:00;4.82;;;2.50;;
64915;SDS011;51427;-27.442;153.014;2023-08-21T01:42:27;5.78;;;3.08;;
64915;SDS011;51427;-27.442;153.014;2023-08-21T01:44:54;5.95;;;3.30;;
64915;SDS011;51427;-27.442;153.014;2023-08-21T01:47:22;4.22;;;2.70;;
64915;SDS011;51427;-27.442;153.014;2023-08-21T01:49:49;4.20;;;3.10;;
64915;SDS011;51427;-27.442;153.014;2023-08-21T01:52:19;4.72;;;3.10;;
64915;SDS011;51427;-27.442;153.014;2023-08-21T01:54:47;4.60;;;2.85;;
64915;SDS011;51427;-27.442;153.014;2023-08-21T01:57:15;5.18;;;2.60;;
64915;SDS011;51427;-27.442;153.014;2023-08-21T01:59:42;5.25;;;2.70;;
64915;SDS011;51427;-27.442;153.014;2023-08-21T02:02:10;5.03;;;2.72;;
64915;SDS011;51427;-27.442;153.014;2023-08-21T02:04:37;4.10;;;2.58;;
64915;SDS011;51427;-27.442;153.014;2023-08-21T02:07:04;4.35;;;2.60;;
64915;SDS011;51427;-27.442;153.014;2023-08-21T02:09:33;3.20;;;2.55;;
64915;SDS011;51427;-27.442;153.014;2023-08-21T02:12:00;4.07;;;2.58;;
64915;SDS011;51427;-27.442;153.014;2023-08-21T02:14:27;3.28;;;2.78;;
64915;SDS011;51427;-27.442;153.014;2023-08-21T02:16:55;5.05;;;2.60;;
64915;SDS011;51427;-27.442;153.014;2023-08-21T02:19:22;2.67;;;2.40;;
64915;SDS011;51427;-27.442;153.014;2023-08-21T02:21:49;2.53;;;2.20;;
64915;SDS011;51427;-27.442;153.014;2023-08-21T02:24:16;3.20;;;2.20;;
64915;SDS011;51427;-27.442;153.014;2023-08-21T02:26:46;2.78;;;2.13;;
64915;SDS011;51427;-27.442;153.014;2023-08-21T02:29:13;3.33;;;2.42;;
64915;SDS011;51427;-27.442;153.014;2023-08-21T02:31:40;3.22;;;2.22;;
64915;SDS011;51427;-27.442;153.014;2023-08-21T02:34:08;5.15;;;2.30;;
64915;SDS011;51427;-27.442;153.014;2023-08-21T02:36:35;4.20;;;2.55;;
64915;SDS011;51427;-27.442;153.014;2023-08-21T02:39:02;3.22;;;2.10;;
64915;SDS011;51427;-27.442;153.014;2023-08-21T02:41:29;3.35;;;2.28;;
64915;SDS011;51427;-27.442;153.014;2023-08-21T02:43:56;3.50;;;2.45;;
64915;SDS011;51427;-27.442;153.014;2023-08-21T02:46:24;3.10;;;2.30;;
64915;SDS011;51427;-27.442;153.014;2023-08-21T02:48:51;3.20;;;2.10;;
64915;SDS011;51427;-27.442;153.014;2023-08-21T02:51:18;3.40;;;2.25;;
64915;SDS011;51427;-27.442;153.014;2023-08-21T02:53:45;4.10;;;2.55;;
64915;SDS011;51427;-27.442;153.014;2023-08-21T02:56:12;3.42;;;2.40;;
64915;SDS011;51427;-27.442;153.014;2023-08-21T02:58:39;2.55;;;2.20;;
64915;SDS011;51427;-27.442;153.014;2023-08-21T03:01:07;5.28;;;2.35;;
64915;SDS011;51427;-27.442;153.014;2023-08-21T03:03:34;3.88;;;2.30;;
64915;SDS011;51427;-27.442;153.014;2023-08-21T03:06:01;3.67;;;2.30;;
64915;SDS011;51427;-27.442;153.014;2023-08-21T03:08:28;2.85;;;2.10;;
64915;SDS011;51427;-27.442;153.014;2023-08-21T03:10:56;3.03;;;2.30;;
64915;SDS011;51427;-27.442;153.014;2023-08-21T03:13:23;3.17;;;2.10;;
64915;SDS011;51427;-27.442;153.014;2023-08-21T03:15:50;3.25;;;1.77;;
64915;SDS011;51427;-27.442;153.014;2023-08-21T03:18:17;2.58;;;1.90;;
64915;SDS011;51427;-27.442;153.014;2023-08-21T03:20:45;3.13;;;2.10;;
64915;SDS011;51427;-27.442;153.014;2023-08-21T03:23:13;3.35;;;2.05;;
64915;SDS011;51427;-27.442;153.014;2023-08-21T03:25:40;3.30;;;1.63;;
64915;SDS011;51427;-27.442;153.014;2023-08-21T03:28:08;3.03;;;1.92;;
64915;SDS011;51427;-27.442;153.014;2023-08-21T03:30:35;2.17;;;1.98;;
64915;SDS011;51427;-27.442;153.014;2023-08-21T03:33:05;3.97;;;2.35;;
64915;SDS011;51427;-27.442;153.014;2023-08-21T03:35:33;3.13;;;2.20;;
64915;SDS011;51427;-27.442;153.014;2023-08-21T03:38:00;2.35;;;1.73;;
64915;SDS011;51427;-27.442;153.014;2023-08-21T03:40:28;3.75;;;2.17;;
64915;SDS011;51427;-27.442;153.014;2023-08-21T03:42:55;2.85;;;2.42;;
64915;SDS011;51427;-27.442;153.014;2023-08-21T03:45:22;3.58;;;2.15;;
64915;SDS011;51427;-27.442;153.014;2023-08-21T03:47:49;2.72;;;2.20;;
64915;SDS011;51427;-27.442;153.014;2023-08-21T03:50:16;3.75;;;2.30;;
64915;SDS011;51427;-27.442;153.014;2023-08-21T03:52:44;3.35;;;2.28;;
64915;SDS011;51427;-27.442;153.014;2023-08-21T03:55:11;2.40;;;2.20;;
64915;SDS011;51427;-27.442;153.014;2023-08-21T03:57:38;4.30;;;2.40;;
64915;SDS011;51427;-27.442;153.014;2023-08-21T04:00:05;2.22;;;2.03;;
64915;SDS011;51427;-27.442;153.014;2023-08-21T04:02:33;5.25;;;2.63;;
64915;SDS011;51427;-27.442;153.014;2023-08-21T04:05:00;2.40;;;2.20;;
64915;SDS011;51427;-27.442;153.014;2023-08-21T04:07:28;2.97;;;2.10;;
64915;SDS011;51427;-27.442;153.014;2023-08-21T04:09:55;2.22;;;2.03;;
64915;SDS011;51427;-27.442;153.014;2023-08-21T04:12:22;3.95;;;2.25;;
64915;SDS011;51427;-27.442;153.014;2023-08-21T04:14:49;4.03;;;2.15;;
64915;SDS011;51427;-27.442;153.014;2023-08-21T04:17:20;2.85;;;1.83;;
64915;SDS011;51427;-27.442;153.014;2023-08-21T04:19:48;3.92;;;2.20;;
64915;SDS011;51427;-27.442;153.014;2023-08-21T04:22:18;2.25;;;1.65;;
64915;SDS011;51427;-27.442;153.014;2023-08-21T04:24:45;6.25;;;1.85;;
64915;SDS011;51427;-27.442;153.014;2023-08-21T04:27:13;3.42;;;2.20;;
64915;SDS011;51427;-27.442;153.014;2023-08-21T04:29:40;3.70;;;1.90;;
64915;SDS011;51427;-27.442;153.014;2023-08-21T04:32:08;2.50;;;2.13;;
64915;SDS011;51427;-27.442;153.014;2023-08-21T04:34:35;3.70;;;2.00;;
64915;SDS011;51427;-27.442;153.014;2023-08-21T04:37:02;3.72;;;2.20;;
64915;SDS011;51427;-27.442;153.014;2023-08-21T04:39:30;4.43;;;2.25;;
64915;SDS011;51427;-27.442;153.014;2023-08-21T04:41:57;4.05;;;2.03;;
64915;SDS011;51427;-27.442;153.014;2023-08-21T04:44:24;4.00;;;2.22;;
64915;SDS011;51427;-27.442;153.014;2023-08-21T04:46:52;3.42;;;1.73;;
64915;SDS011;51427;-27.442;153.014;2023-08-21T04:49:19;3.47;;;1.75;;
64915;SDS011;51427;-27.442;153.014;2023-08-21T04:51:46;3.22;;;2.10;;
64915;SDS011;51427;-27.442;153.014;2023-08-21T04:54:13;2.58;;;2.10;;
64915;SDS011;51427;-27.442;153.014;2023-08-21T04:56:40;2.13;;;1.60;;
64915;SDS011;51427;-27.442;153.014;2023-08-21T04:59:07;5.07;;;2.60;;
64915;SDS011;51427;-27.442;153.014;2023-08-21T05:01:35;3.10;;;1.98;;
64915;SDS011;51427;-27.442;153.014;2023-08-21T05:04:02;2.30;;;1.90;;
64915;SDS011;51427;-27.442;153.014;2023-08-21T05:06:29;3.20;;;2.10;;
64915;SDS011;51427;-27.442;153.014;2023-08-21T05:08:56;1.85;;;1.58;;
64915;SDS011;51427;-27.442;153.014;2023-08-21T05:11:28;2.90;;;1.67;;
64915;SDS011;51427;-27.442;153.014;2023-08-21T05:13:55;3.33;;;1.95;;
64915;SDS011;51427;-27.442;153.014;2023-08-21T05:16:22;4.78;;;1.95;;
64915;SDS011;51427;-27.442;153.014;2023-08-21T05:18:49;4.38;;;2.25;;
64915;SDS011;51427;-27.442;153.014;2023-08-21T05:21:16;2.92;;;1.98;;
64915;SDS011;51427;-27.442;153.014;2023-08-21T05:23:43;3.55;;;2.10;;
64915;SDS011;51427;-27.442;153.014;2023-08-21T05:26:11;2.75;;;2.00;;
64915;SDS011;51427;-27.442;153.014;2023-08-21T05:28:38;3.25;;;2.20;;
64915;SDS011;51427;-27.442;153.014;2023-08-21T05:31:05;4.47;;;2.03;;
64915;SDS011;51427;-27.442;153.014;2023-08-21T05:33:32;2.72;;;2.20;;
64915;SDS011;51427;-27.442;153.014;2023-08-21T05:35:59;2.22;;;1.90;;
64915;SDS011;51427;-27.442;153.014;2023-08-21T05:38:27;2.83;;;1.85;;
64915;SDS011;51427;-27.442;153.014;2023-08-21T05:40:54;3.13;;;2.25;;
64915;SDS011;51427;-27.442;153.014;2023-08-21T05:43:21;1.98;;;1.77;;
64915;SDS011;51427;-27.442;153.014;2023-08-21T05:45:48;2.15;;;1.67;;
64915;SDS011;51427;-27.442;153.014;2023-08-21T05:48:15;2.10;;;1.90;;
64915;SDS011;51427;-27.442;153.014;2023-08-21T05:50:43;2.13;;;1.80;;
64915;SDS011;51427;-27.442;153.014;2023-08-21T05:53:10;2.70;;;1.77;;
64915;SDS011;51427;-27.442;153.014;2023-08-21T05:55:37;2.65;;;1.80;;
64915;SDS011;51427;-27.442;153.014;2023-08-21T05:58:04;3.60;;;1.70;;
64915;SDS011;51427;-27.442;153.014;2023-08-21T06:00:33;2.63;;;2.10;;
64915;SDS011;51427;-27.442;153.014;2023-08-21T06:03:00;3.67;;;1.88;;
64915;SDS011;51427;-27.442;153.014;2023-08-21T06:05:28;3.80;;;1.80;;
64915;SDS011;51427;-27.442;153.014;2023-08-21T06:07:55;3.28;;;1.63;;
64915;SDS011;51427;-27.442;153.014;2023-08-21T06:10:22;1.80;;;1.63;;
64915;SDS011;51427;-27.442;153.014;2023-08-21T06:12:49;5.88;;;1.60;;
64915;SDS011;51427;-27.442;153.014;2023-08-21T06:15:17;3.50;;;1.65;;
64915;SDS011;51427;-27.442;153.014;2023-08-21T06:17:44;3.72;;;1.70;;
64915;SDS011;51427;-27.442;153.014;2023-08-21T06:20:11;2.15;;;1.70;;
64915;SDS011;51427;-27.442;153.014;2023-08-21T06:22:39;2.92;;;1.55;;
64915;SDS011;51427;-27.442;153.014;2023-08-21T06:25:07;2.90;;;1.75;;
64915;SDS011;51427;-27.442;153.014;2023-08-21T06:27:34;2.70;;;1.65;;
64915;SDS011;51427;-27.442;153.014;2023-08-21T06:30:02;2.83;;;1.50;;
64915;SDS011;51427;-27.442;153.014;2023-08-21T06:32:29;2.28;;;1.50;;
64915;SDS011;51427;-27.442;153.014;2023-08-21T06:34:56;2.58;;;1.70;;
64915;SDS011;51427;-27.442;153.014;2023-08-21T06:37:23;4.95;;;1.92;;
64915;SDS011;51427;-27.442;153.014;2023-08-21T06:39:51;2.95;;;1.70;;
64915;SDS011;51427;-27.442;153.014;2023-08-21T06:42:18;4.53;;;1.70;;
64915;SDS011;51427;-27.442;153.014;2023-08-21T06:44:46;2.70;;;1.90;;
64915;SDS011;51427;-27.442;153.014;2023-08-21T06:47:13;3.88;;;1.77;;
64915;SDS011;51427;-27.442;153.014;2023-08-21T06:49:40;2.17;;;1.88;;
64915;SDS011;51427;-27.442;153.014;2023-08-21T06:52:07;2.88;;;1.80;;
64915;SDS011;51427;-27.442;153.014;2023-08-21T06:54:34;5.00;;;1.50;;
64915;SDS011;51427;-27.442;153.014;2023-08-21T06:57:02;3.10;;;1.95;;
64915;SDS011;51427;-27.442;153.014;2023-08-21T06:59:29;3.00;;;2.00;;
64915;SDS011;51427;-27.442;153.014;2023-08-21T07:01:57;4.47;;;1.83;;
64915;SDS011;51427;-27.442;153.014;2023-08-21T07:04:25;3.63;;;1.92;;
64915;SDS011;51427;-27.442;153.014;2023-08-21T07:06:52;3.65;;;1.70;;
64915;SDS011;51427;-27.442;153.014;2023-08-21T07:09:20;2.50;;;1.92;;
64915;SDS011;51427;-27.442;153.014;2023-08-21T07:11:47;2.92;;;1.80;;
64915;SDS011;51427;-27.442;153.014;2023-08-21T07:14:14;2.17;;;1.73;;
64915;SDS011;51427;-27.442;153.014;2023-08-21T07:16:43;2.25;;;1.70;;
64915;SDS011;51427;-27.442;153.014;2023-08-21T07:19:10;3.10;;;1.67;;
64915;SDS011;51427;-27.442;153.014;2023-08-21T07:21:37;2.38;;;1.80;;
64915;SDS011;51427;-27.442;153.014;2023-08-21T07:24:04;2.35;;;1.77;;
64915;SDS011;51427;-27.442;153.014;2023-08-21T07:26:32;4.43;;;2.10;;
64915;SDS011;51427;-27.442;153.014;2023-08-21T07:28:59;2.70;;;2.13;;
64915;SDS011;51427;-27.442;153.014;2023-08-21T07:31:26;3.33;;;2.15;;
64915;SDS011;51427;-27.442;153.014;2023-08-21T07:33:54;3.15;;;1.92;;
64915;SDS011;51427;-27.442;153.014;2023-08-21T07:36:21;1.80;;;1.60;;
64915;SDS011;51427;-27.442;153.014;2023-08-21T07:38:49;3.63;;;2.05;;
64915;SDS011;51427;-27.442;153.014;2023-08-21T07:41:16;4.35;;;2.00;;
64915;SDS011;51427;-27.442;153.014;2023-08-21T07:43:43;2.63;;;1.85;;
64915;SDS011;51427;-27.442;153.014;2023-08-21T07:46:12;3.47;;;2.00;;
64915;SDS011;51427;-27.442;153.014;2023-08-21T07:48:42;2.53;;;2.08;;
64915;SDS011;51427;-27.442;153.014;2023-08-21T07:51:09;4.10;;;2.10;;
64915;SDS011;51427;-27.442;153.014;2023-08-21T07:53:37;3.78;;;2.50;;
64915;SDS011;51427;-27.442;153.014;2023-08-21T07:56:04;2.42;;;1.70;;
64915;SDS011;51427;-27.442;153.014;2023-08-21T07:58:32;3.97;;;2.25;;
64915;SDS011;51427;-27.442;153.014;2023-08-21T08:00:59;2.42;;;1.80;;
64915;SDS011;51427;-27.442;153.014;2023-08-21T08:03:27;2.95;;;1.77;;
64915;SDS011;51427;-27.442;153.014;2023-08-21T08:05:54;4.40;;;2.10;;
64915;SDS011;51427;-27.442;153.014;2023-08-21T08:08:22;2.88;;;1.92;;
64915;SDS011;51427;-27.442;153.014;2023-08-21T08:10:49;2.78;;;1.90;;
64915;SDS011;51427;-27.442;153.014;2023-08-21T08:13:17;3.28;;;1.85;;
64915;SDS011;51427;-27.442;153.014;2023-08-21T08:15:44;2.70;;;1.90;;
64915;SDS011;51427;-27.442;153.014;2023-08-21T08:18:12;1.98;;;1.80;;
64915;SDS011;51427;-27.442;153.014;2023-08-21T08:20:40;2.70;;;2.08;;
64915;SDS011;51427;-27.442;153.014;2023-08-21T08:23:07;2.15;;;1.95;;
64915;SDS011;51427;-27.442;153.014;2023-08-21T08:25:34;3.28;;;2.22;;
64915;SDS011;51427;-27.442;153.014;2023-08-21T08:28:02;3.53;;;2.00;;
64915;SDS011;51427;-27.442;153.014;2023-08-21T08:30:29;3.80;;;2.30;;
64915;SDS011;51427;-27.442;153.014;2023-08-21T08:32:56;3.58;;;2.50;;
64915;SDS011;51427;-27.442;153.014;2023-08-21T08:35:24;3.25;;;2.10;;
64915;SDS011;51427;-27.442;153.014;2023-08-21T08:37:51;2.20;;;1.90;;
64915;SDS011;51427;-27.442;153.014;2023-08-21T08:40:18;4.40;;;2.65;;
64915;SDS011;51427;-27.442;153.014;2023-08-21T08:42:46;5.47;;;2.50;;
64915;SDS011;51427;-27.442;153.014;2023-08-21T08:45:14;2.60;;;2.13;;
64915;SDS011;51427;-27.442;153.014;2023-08-21T08:47:50;3.35;;;2.00;;
64915;SDS011;51427;-27.442;153.014;2023-08-21T08:50:17;4.72;;;2.78;;
64915;SDS011;51427;-27.442;153.014;2023-08-21T08:52:45;3.55;;;2.30;;
64915;SDS011;51427;-27.442;153.014;2023-08-21T08:55:13;3.67;;;2.42;;
64915;SDS011;51427;-27.442;153.014;2023-08-21T08:57:41;3.15;;;2.25;;
64915;SDS011;51427;-27.442;153.014;2023-08-21T09:00:08;6.32;;;2.50;;
64915;SDS011;51427;-27.442;153.014;2023-08-21T09:02:36;2.90;;;2.45;;
64915;SDS011;51427;-27.442;153.014;2023-08-21T09:05:03;4.32;;;2.35;;
64915;SDS011;51427;-27.442;153.014;2023-08-21T09:07:32;4.65;;;2.72;;
64915;SDS011;51427;-27.442;153.014;2023-08-21T09:10:00;2.80;;;2.40;;
64915;SDS011;51427;-27.442;153.014;2023-08-21T09:12:31;4.85;;;2.50;;
64915;SDS011;51427;-27.442;153.014;2023-08-21T09:14:58;3.00;;;2.58;;
64915;SDS011;51427;-27.442;153.014;2023-08-21T09:17:26;3.72;;;2.78;;
64915;SDS011;51427;-27.442;153.014;2023-08-21T09:19:53;4.40;;;2.60;;
64915;SDS011;51427;-27.442;153.014;2023-08-21T09:22:20;3.58;;;2.63;;
64915;SDS011;51427;-27.442;153.014;2023-08-21T09:25:01;3.13;;;2.30;;
64915;SDS011;51427;-27.442;153.014;2023-08-21T09:27:37;5.20;;;2.67;;
64915;SDS011;51427;-27.442;153.014;2023-08-21T09:30:06;3.40;;;2.40;;
64915;SDS011;51427;-27.442;153.014;2023-08-21T09:32:54;4.30;;;3.17;;
64915;SDS011;51427;-27.442;153.014;2023-08-21T09:35:23;5.45;;;2.80;;
64915;SDS011;51427;-27.442;153.014;2023-08-21T09:37:51;2.92;;;2.65;;
64915;SDS011;51427;-27.442;153.014;2023-08-21T09:40:20;7.40;;;3.60;;
64915;SDS011;51427;-27.442;153.014;2023-08-21T09:42:55;5.22;;;3.42;;
64915;SDS011;51427;-27.442;153.014;2023-08-21T09:45:23;4.70;;;3.05;;
64915;SDS011;51427;-27.442;153.014;2023-08-21T09:47:51;4.47;;;2.92;;
64915;SDS011;51427;-27.442;153.014;2023-08-21T09:50:19;6.00;;;2.92;;
64915;SDS011;51427;-27.442;153.014;2023-08-21T09:52:47;5.03;;;3.30;;
64915;SDS011;51427;-27.442;153.014;2023-08-21T09:55:16;5.28;;;3.78;;
64915;SDS011;51427;-27.442;153.014;2023-08-21T09:57:43;6.97;;;4.00;;
64915;SDS011;51427;-27.442;153.014;2023-08-21T10:00:11;6.25;;;3.65;;
64915;SDS011;51427;-27.442;153.014;2023-08-21T10:02:42;6.50;;;4.18;;
64915;SDS011;51427;-27.442;153.014;2023-08-21T10:05:15;6.05;;;4.45;;
64915;SDS011;51427;-27.442;153.014;2023-08-21T10:07:49;5.78;;;4.05;;
64915;SDS011;51427;-27.442;153.014;2023-08-21T10:10:17;6.70;;;4.22;;
64915;SDS011;51427;-27.442;153.014;2023-08-21T10:12:45;5.95;;;3.85;;
64915;SDS011;51427;-27.442;153.014;2023-08-21T10:15:13;6.00;;;3.90;;
64915;SDS011;51427;-27.442;153.014;2023-08-21T10:17:42;5.53;;;3.58;;
64915;SDS011;51427;-27.442;153.014;2023-08-21T10:20:10;5.53;;;3.90;;
64915;SDS011;51427;-27.442;153.014;2023-08-21T10:22:39;6.15;;;3.78;;
64915;SDS011;51427;-27.442;153.014;2023-08-21T10:25:16;6.85;;;3.92;;
64915;SDS011;51427;-27.442;153.014;2023-08-21T10:27:54;4.78;;;3.50;;
64915;SDS011;51427;-27.442;153.014;2023-08-21T10:30:27;6.60;;;3.70;;
64915;SDS011;51427;-27.442;153.014;2023-08-21T10:32:57;6.07;;;3.17;;
64915;SDS011;51427;-27.442;153.014;2023-08-21T10:35:30;6.68;;;4.03;;
64915;SDS011;51427;-27.442;153.014;2023-08-21T10:43:39;6.40;;;3.35;;
64915;SDS011;51427;-27.442;153.014;2023-08-21T10:46:12;4.93;;;3.65;;
64915;SDS011;51427;-27.442;153.014;2023-08-21T10:48:41;6.97;;;3.97;;
64915;SDS011;51427;-27.442;153.014;2023-08-21T10:51:09;5.50;;;3.38;;
64915;SDS011;51427;-27.442;153.014;2023-08-21T10:53:38;5.05;;;3.10;;
64915;SDS011;51427;-27.442;153.014;2023-08-21T10:56:08;5.03;;;3.42;;
64915;SDS011;51427;-27.442;153.014;2023-08-21T10:58:41;6.82;;;3.25;;
64915;SDS011;51427;-27.442;153.014;2023-08-21T11:01:12;6.28;;;3.60;;
64915;SDS011;51427;-27.442;153.014;2023-08-21T11:03:40;5.35;;;3.40;;
64915;SDS011;51427;-27.442;153.014;2023-08-21T11:06:11;6.97;;;3.47;;
64915;SDS011;51427;-27.442;153.014;2023-08-21T11:08:39;7.85;;;5.13;;
64915;SDS011;51427;-27.442;153.014;2023-08-21T11:11:06;5.88;;;3.97;;
64915;SDS011;51427;-27.442;153.014;2023-08-21T11:13:34;8.00;;;3.97;;
64915;SDS011;51427;-27.442;153.014;2023-08-21T11:16:02;5.28;;;3.55;;
64915;SDS011;51427;-27.442;153.014;2023-08-21T11:21:10;8.65;;;3.35;;
64915;SDS011;51427;-27.442;153.014;2023-08-21T11:23:39;4.35;;;3.28;;
64915;SDS011;51427;-27.442;153.014;2023-08-21T11:26:10;5.72;;;3.10;;
64915;SDS011;51427;-27.442;153.014;2023-08-21T11:28:38;4.57;;;3.38;;
64915;SDS011;51427;-27.442;153.014;2023-08-21T11:31:06;7.10;;;3.70;;
64915;SDS011;51427;-27.442;153.014;2023-08-21T11:33:34;6.20;;;3.78;;
64915;SDS011;51427;-27.442;153.014;2023-08-21T11:36:05;6.18;;;3.80;;
64915;SDS011;51427;-27.442;153.014;2023-08-21T11:38:32;4.63;;;3.42;;
64915;SDS011;51427;-27.442;153.014;2023-08-21T11:41:05;4.28;;;3.20;;
64915;SDS011;51427;-27.442;153.014;2023-08-21T11:43:37;5.60;;;3.67;;
64915;SDS011;51427;-27.442;153.014;2023-08-21T11:46:07;5.13;;;3.47;;
64915;SDS011;51427;-27.442;153.014;2023-08-21T11:48:40;3.92;;;3.05;;
64915;SDS011;51427;-27.442;153.014;2023-08-21T11:51:08;4.63;;;3.53;;
64915;SDS011;51427;-27.442;153.014;2023-08-21T11:53:39;4.70;;;3.13;;
64915;SDS011;51427;-27.442;153.014;2023-08-21T11:56:12;7.15;;;3.25;;
64915;SDS011;51427;-27.442;153.014;2023-08-21T11:58:41;5.88;;;3.65;;
64915;SDS011;51427;-27.442;153.014;2023-08-21T12:01:20;14.65;;;8.35;;
64915;SDS011;51427;-27.442;153.014;2023-08-21T12:03:48;16.33;;;9.70;;
64915;SDS011;51427;-27.442;153.014;2023-08-21T12:06:21;12.45;;;8.88;;
64915;SDS011;51427;-27.442;153.014;2023-08-21T12:08:49;6.05;;;3.13;;
64915;SDS011;51427;-27.442;153.014;2023-08-21T12:11:17;9.45;;;5.55;;
64915;SDS011;51427;-27.442;153.014;2023-08-21T12:13:45;22.70;;;13.00;;
64915;SDS011;51427;-27.442;153.014;2023-08-21T12:16:12;11.10;;;6.38;;
64915;SDS011;51427;-27.442;153.014;2023-08-21T12:18:40;8.18;;;5.15;;
64915;SDS011;51427;-27.442;153.014;2023-08-21T12:21:07;27.10;;;16.33;;
64915;SDS011;51427;-27.442;153.014;2023-08-21T12:23:35;10.68;;;6.43;;
64915;SDS011;51427;-27.442;153.014;2023-08-21T12:26:03;15.80;;;9.48;;
64915;SDS011;51427;-27.442;153.014;2023-08-21T12:28:31;15.32;;;8.80;;
64915;SDS011;51427;-27.442;153.014;2023-08-21T12:30:58;12.43;;;7.50;;
64915;SDS011;51427;-27.442;153.014;2023-08-21T12:33:26;8.07;;;4.72;;
64915;SDS011;51427;-27.442;153.014;2023-08-21T12:35:56;4.97;;;4.10;;
64915;SDS011;51427;-27.442;153.014;2023-08-21T12:38:24;7.75;;;4.22;;
64915;SDS011;51427;-27.442;153.014;2023-08-21T12:40:54;5.22;;;3.63;;
64915;SDS011;51427;-27.442;153.014;2023-08-21T12:43:22;4.65;;;3.05;;
64915;SDS011;51427;-27.442;153.014;2023-08-21T12:45:51;5.05;;;3.20;;
64915;SDS011;51427;-27.442;153.014;2023-08-21T12:48:18;4.93;;;3.40;;
64915;SDS011;51427;-27.442;153.014;2023-08-21T12:50:46;4.25;;;3.10;;
64915;SDS011;51427;-27.442;153.014;2023-08-21T12:53:14;5.22;;;3.17;;
64915;SDS011;51427;-27.442;153.014;2023-08-21T12:55:41;4.55;;;2.90;;
64915;SDS011;51427;-27.442;153.014;2023-08-21T12:58:09;4.60;;;2.72;;
64915;SDS011;51427;-27.442;153.014;2023-08-21T13:00:39;6.78;;;3.50;;
64915;SDS011;51427;-27.442;153.014;2023-08-21T13:03:07;5.90;;;3.53;;
64915;SDS011;51427;-27.442;153.014;2023-08-21T13:05:35;8.15;;;4.80;;
64915;SDS011;51427;-27.442;153.014;2023-08-21T13:08:03;5.00;;;4.00;;
64915;SDS011;51427;-27.442;153.014;2023-08-21T13:10:30;5.07;;;3.70;;
64915;SDS011;51427;-27.442;153.014;2023-08-21T13:12:58;3.67;;;3.25;;
64915;SDS011;51427;-27.442;153.014;2023-08-21T13:15:26;4.25;;;2.92;;
64915;SDS011;51427;-27.442;153.014;2023-08-21T13:17:53;4.53;;;3.53;;
64915;SDS011;51427;-27.442;153.014;2023-08-21T13:20:21;3.53;;;2.92;;
64915;SDS011;51427;-27.442;153.014;2023-08-21T13:22:50;5.28;;;3.35;;
64915;SDS011;51427;-27.442;153.014;2023-08-21T13:25:19;5.90;;;3.50;;
64915;SDS011;51427;-27.442;153.014;2023-08-21T13:27:48;6.00;;;4.00;;
64915;SDS011;51427;-27.442;153.014;2023-08-21T13:30:17;5.05;;;3.17;;
64915;SDS011;51427;-27.442;153.014;2023-08-21T13:32:46;4.97;;;2.85;;
64915;SDS011;51427;-27.442;153.014;2023-08-21T13:35:13;5.03;;;2.90;;
64915;SDS011;51427;-27.442;153.014;2023-08-21T13:37:42;4.68;;;2.60;;
64915;SDS011;51427;-27.442;153.014;2023-08-21T13:40:10;5.38;;;2.70;;
64915;SDS011;51427;-27.442;153.014;2023-08-21T13:42:40;3.63;;;2.90;;
64915;SDS011;51427;-27.442;153.014;2023-08-21T13:45:10;3.97;;;2.90;;
64915;SDS011;51427;-27.442;153.014;2023-08-21T13:47:42;6.45;;;3.10;;
64915;SDS011;51427;-27.442;153.014;2023-08-21T13:50:15;4.93;;;2.83;;
64915;SDS011;51427;-27.442;153.014;2023-08-21T13:52:46;6.10;;;4.00;;
64915;SDS011;51427;-27.442;153.014;2023-08-21T13:55:17;4.97;;;3.45;;
64915;SDS011;51427;-27.442;153.014;2023-08-21T13:57:44;4.60;;;3.45;;
64915;SDS011;51427;-27.442;153.014;2023-08-21T14:00:12;6.15;;;3.33;;
64915;SDS011;51427;-27.442;153.014;2023-08-21T14:02:47;4.63;;;3.30;;
64915;SDS011;51427;-27.442;153.014;2023-08-21T14:05:15;5.60;;;3.45;;
64915;SDS011;51427;-27.442;153.014;2023-08-21T14:07:43;6.03;;;3.38;;
64915;SDS011;51427;-27.442;153.014;2023-08-21T14:10:11;4.40;;;3.20;;
64915;SDS011;51427;-27.442;153.014;2023-08-21T14:12:40;3.80;;;2.83;;
64915;SDS011;51427;-27.442;153.014;2023-08-21T14:15:08;4.72;;;3.03;;
64915;SDS011;51427;-27.442;153.014;2023-08-21T14:17:36;4.80;;;2.75;;
64915;SDS011;51427;-27.442;153.014;2023-08-21T14:20:04;3.13;;;2.70;;
64915;SDS011;51427;-27.442;153.014;2023-08-21T14:22:39;5.03;;;3.00;;
64915;SDS011;51427;-27.442;153.014;2023-08-21T14:25:07;4.88;;;2.80;;
64915;SDS011;51427;-27.442;153.014;2023-08-21T14:27:35;3.10;;;2.60;;
64915;SDS011;51427;-27.442;153.014;2023-08-21T14:30:03;3.88;;;2.38;;